This is the latest recevied weather packets stored in our database for station/object EA2DXT-10. If no packets are shown the sender has not sent any weather packets the latest 10 day(s).
| Time | Temp. | Humidity | Pressure | Rain* | Wind** | Luminosity | Snow |
|---|---|---|---|---|---|---|---|
| 1777435307 | 12.78° C | 81% | 940.8 hPa | - | - | - | - |
| 1777434407 | 12.78° C | 81% | 940.9 hPa | - | - | - | - |
| 1777434390 | 12.78° C | 81% | 944.3 hPa | - | - | - | - |
| 1777434377 | 12.78° C | 81% | 941 hPa | - | - | - | - |
| 1777433476 | 12.22° C | 81% | 939.5 hPa | - | - | - | - |
| 1777433446 | 12.78° C | 81% | 941.1 hPa | - | - | - | - |
| 1777432545 | 12.78° C | 81% | 941.1 hPa | - | - | - | - |
| 1777432533 | 12.78° C | 81% | 941.2 hPa | - | - | - | - |
| 1777431632 | 12.78° C | 80% | 942.1 hPa | - | - | - | - |
| 1777431619 | 12.78° C | 80% | 943.2 hPa | - | - | - | - |
| 1777430719 | 11.67° C | 80% | 939 hPa | - | - | - | - |
| 1777430703 | 5.56° C | 79% | 929.2 hPa | - | - | - | - |
| 1777429802 | 12.78° C | 80% | 944.3 hPa | - | - | - | - |
| 1777429787 | 12.78° C | 80% | 944 hPa | - | - | - | - |
| 1777428886 | 12.78° C | 79% | 944.5 hPa | - | - | - | - |
| 1777428868 | 12.78° C | 79% | 945.4 hPa | - | - | - | - |
| 1777428855 | 12.78° C | 79% | 941.4 hPa | - | - | - | - |
| 1777427954 | 12.78° C | 79% | 942.5 hPa | - | - | - | - |
| 1777427936 | 12.78° C | 79% | 941.5 hPa | - | - | - | - |
| 1777427923 | 10° C | 79% | 938 hPa | - | - | - | - |
| 1777427022 | 8.33° C | 78% | 934.3 hPa | - | - | - | - |
| 1777427011 | 12.78° C | 79% | 941.7 hPa | - | - | - | - |
| 1777426134 | 12.78° C | 78% | 942.1 hPa | - | - | - | - |
| 1777426111 | 12.78° C | 79% | 942.1 hPa | - | - | - | - |
| 1777426099 | 12.78° C | 78% | 942.1 hPa | - | - | - | - |
* Rain since midnight (hover to see other rain measurements)
** Current wind speed in m/s (hover to see current wind gust speed)